sensor_id;sensor_type;location;lat;lon;timestamp;P1;durP1;ratioP1;P2;durP2;ratioP2
15216;SDS011;7711;46.634;14.318;2022-09-13T00:01:22;4.43;;;3.07;;
15216;SDS011;7711;46.634;14.318;2022-09-13T00:03:49;6.47;;;2.93;;
15216;SDS011;7711;46.634;14.318;2022-09-13T00:06:17;3.93;;;3.20;;
15216;SDS011;7711;46.634;14.318;2022-09-13T00:08:45;3.67;;;3.37;;
15216;SDS011;7711;46.634;14.318;2022-09-13T00:11:14;4.23;;;3.00;;
15216;SDS011;7711;46.634;14.318;2022-09-13T00:13:42;3.70;;;3.30;;
15216;SDS011;7711;46.634;14.318;2022-09-13T00:16:10;5.97;;;3.27;;
15216;SDS011;7711;46.634;14.318;2022-09-13T00:18:40;4.27;;;3.17;;
15216;SDS011;7711;46.634;14.318;2022-09-13T00:21:08;5.77;;;2.90;;
15216;SDS011;7711;46.634;14.318;2022-09-13T00:23:37;3.60;;;2.80;;
15216;SDS011;7711;46.634;14.318;2022-09-13T00:26:06;8.77;;;3.10;;
15216;SDS011;7711;46.634;14.318;2022-09-13T00:28:35;3.60;;;3.00;;
15216;SDS011;7711;46.634;14.318;2022-09-13T00:31:03;4.33;;;3.17;;
15216;SDS011;7711;46.634;14.318;2022-09-13T00:33:33;3.83;;;2.93;;
15216;SDS011;7711;46.634;14.318;2022-09-13T00:36:04;4.33;;;3.30;;
15216;SDS011;7711;46.634;14.318;2022-09-13T00:38:33;3.83;;;3.20;;
15216;SDS011;7711;46.634;14.318;2022-09-13T00:41:01;4.27;;;2.77;;
15216;SDS011;7711;46.634;14.318;2022-09-13T00:43:46;4.87;;;3.10;;
15216;SDS011;7711;46.634;14.318;2022-09-13T00:46:20;5.13;;;3.00;;
15216;SDS011;7711;46.634;14.318;2022-09-13T00:48:54;3.10;;;2.80;;
15216;SDS011;7711;46.634;14.318;2022-09-13T00:51:28;4.23;;;3.10;;
15216;SDS011;7711;46.634;14.318;2022-09-13T00:53:56;5.23;;;3.20;;
15216;SDS011;7711;46.634;14.318;2022-09-13T00:56:26;3.53;;;2.90;;
15216;SDS011;7711;46.634;14.318;2022-09-13T00:58:57;3.57;;;3.10;;
15216;SDS011;7711;46.634;14.318;2022-09-13T01:01:28;6.37;;;3.37;;
15216;SDS011;7711;46.634;14.318;2022-09-13T01:03:58;3.23;;;2.93;;
15216;SDS011;7711;46.634;14.318;2022-09-13T01:06:28;5.23;;;3.07;;
15216;SDS011;7711;46.634;14.318;2022-09-13T01:08:59;4.87;;;2.80;;
15216;SDS011;7711;46.634;14.318;2022-09-13T01:11:31;3.23;;;2.93;;
15216;SDS011;7711;46.634;14.318;2022-09-13T01:14:04;3.53;;;3.23;;
15216;SDS011;7711;46.634;14.318;2022-09-13T01:16:34;4.03;;;3.20;;
15216;SDS011;7711;46.634;14.318;2022-09-13T01:19:02;5.23;;;3.40;;
15216;SDS011;7711;46.634;14.318;2022-09-13T01:21:48;5.43;;;3.37;;
15216;SDS011;7711;46.634;14.318;2022-09-13T01:24:54;3.77;;;3.23;;
15216;SDS011;7711;46.634;14.318;2022-09-13T01:27:58;5.23;;;3.27;;
15216;SDS011;7711;46.634;14.318;2022-09-13T01:30:45;4.97;;;2.90;;
15216;SDS011;7711;46.634;14.318;2022-09-13T01:33:25;3.47;;;2.93;;
15216;SDS011;7711;46.634;14.318;2022-09-13T01:36:19;5.03;;;3.20;;
15216;SDS011;7711;46.634;14.318;2022-09-13T01:39:04;4.47;;;3.57;;
15216;SDS011;7711;46.634;14.318;2022-09-13T01:41:43;5.23;;;3.30;;
15216;SDS011;7711;46.634;14.318;2022-09-13T01:44:26;7.23;;;4.13;;
15216;SDS011;7711;46.634;14.318;2022-09-13T01:47:08;6.00;;;3.30;;
15216;SDS011;7711;46.634;14.318;2022-09-13T01:49:45;4.33;;;3.43;;
15216;SDS011;7711;46.634;14.318;2022-09-13T01:52:20;5.60;;;3.30;;
15216;SDS011;7711;46.634;14.318;2022-09-13T01:54:55;4.67;;;3.10;;
15216;SDS011;7711;46.634;14.318;2022-09-13T01:57:29;3.90;;;3.10;;
15216;SDS011;7711;46.634;14.318;2022-09-13T02:00:03;3.63;;;3.10;;
15216;SDS011;7711;46.634;14.318;2022-09-13T02:02:35;5.10;;;3.03;;
15216;SDS011;7711;46.634;14.318;2022-09-13T02:05:07;5.60;;;3.50;;
15216;SDS011;7711;46.634;14.318;2022-09-13T02:07:44;6.90;;;3.40;;
15216;SDS011;7711;46.634;14.318;2022-09-13T02:10:21;5.97;;;3.27;;
15216;SDS011;7711;46.634;14.318;2022-09-13T02:12:51;5.37;;;3.40;;
15216;SDS011;7711;46.634;14.318;2022-09-13T02:15:20;5.33;;;3.50;;
15216;SDS011;7711;46.634;14.318;2022-09-13T02:17:53;3.90;;;2.97;;
15216;SDS011;7711;46.634;14.318;2022-09-13T02:20:27;5.47;;;3.20;;
15216;SDS011;7711;46.634;14.318;2022-09-13T02:23:01;5.00;;;3.10;;
15216;SDS011;7711;46.634;14.318;2022-09-13T02:25:30;3.57;;;3.27;;
15216;SDS011;7711;46.634;14.318;2022-09-13T02:28:00;3.70;;;3.27;;
15216;SDS011;7711;46.634;14.318;2022-09-13T02:30:32;4.53;;;3.30;;
15216;SDS011;7711;46.634;14.318;2022-09-13T02:33:06;4.67;;;3.23;;
15216;SDS011;7711;46.634;14.318;2022-09-13T02:35:37;4.23;;;3.20;;
15216;SDS011;7711;46.634;14.318;2022-09-13T02:38:09;8.13;;;3.30;;
15216;SDS011;7711;46.634;14.318;2022-09-13T02:40:42;4.60;;;3.23;;
15216;SDS011;7711;46.634;14.318;2022-09-13T02:43:15;5.13;;;3.00;;
15216;SDS011;7711;46.634;14.318;2022-09-13T02:45:48;5.90;;;3.13;;
15216;SDS011;7711;46.634;14.318;2022-09-13T02:48:28;4.93;;;3.30;;
15216;SDS011;7711;46.634;14.318;2022-09-13T02:51:02;5.00;;;3.10;;
15216;SDS011;7711;46.634;14.318;2022-09-13T02:53:35;5.30;;;2.90;;
15216;SDS011;7711;46.634;14.318;2022-09-13T02:56:09;3.93;;;3.23;;
15216;SDS011;7711;46.634;14.318;2022-09-13T02:58:47;4.83;;;3.50;;
15216;SDS011;7711;46.634;14.318;2022-09-13T03:01:18;4.03;;;3.43;;
15216;SDS011;7711;46.634;14.318;2022-09-13T03:03:47;5.23;;;3.37;;
15216;SDS011;7711;46.634;14.318;2022-09-13T03:06:20;7.63;;;3.70;;
15216;SDS011;7711;46.634;14.318;2022-09-13T03:08:48;6.40;;;3.40;;
15216;SDS011;7711;46.634;14.318;2022-09-13T03:11:17;5.77;;;3.47;;
15216;SDS011;7711;46.634;14.318;2022-09-13T03:13:54;5.63;;;3.40;;
15216;SDS011;7711;46.634;14.318;2022-09-13T03:16:41;4.40;;;3.60;;
15216;SDS011;7711;46.634;14.318;2022-09-13T03:19:20;6.53;;;3.50;;
15216;SDS011;7711;46.634;14.318;2022-09-13T03:22:07;6.50;;;3.60;;
15216;SDS011;7711;46.634;14.318;2022-09-13T03:24:48;5.77;;;3.50;;
15216;SDS011;7711;46.634;14.318;2022-09-13T03:27:22;5.70;;;3.70;;
15216;SDS011;7711;46.634;14.318;2022-09-13T03:29:57;3.77;;;3.30;;
15216;SDS011;7711;46.634;14.318;2022-09-13T03:32:30;4.60;;;3.50;;
15216;SDS011;7711;46.634;14.318;2022-09-13T03:35:05;5.83;;;3.70;;
15216;SDS011;7711;46.634;14.318;2022-09-13T03:37:42;3.50;;;3.20;;
15216;SDS011;7711;46.634;14.318;2022-09-13T03:40:19;5.03;;;3.37;;
15216;SDS011;7711;46.634;14.318;2022-09-13T03:42:54;7.80;;;3.20;;
15216;SDS011;7711;46.634;14.318;2022-09-13T03:45:27;5.13;;;2.97;;
15216;SDS011;7711;46.634;14.318;2022-09-13T03:47:58;3.67;;;3.37;;
15216;SDS011;7711;46.634;14.318;2022-09-13T03:50:27;4.70;;;3.30;;
15216;SDS011;7711;46.634;14.318;2022-09-13T03:52:57;7.40;;;3.40;;
15216;SDS011;7711;46.634;14.318;2022-09-13T03:55:26;4.67;;;3.30;;
15216;SDS011;7711;46.634;14.318;2022-09-13T03:57:55;5.30;;;3.60;;
15216;SDS011;7711;46.634;14.318;2022-09-13T04:00:22;6.00;;;3.67;;
15216;SDS011;7711;46.634;14.318;2022-09-13T04:02:49;4.97;;;4.13;;
15216;SDS011;7711;46.634;14.318;2022-09-13T04:05:16;7.87;;;3.80;;
15216;SDS011;7711;46.634;14.318;2022-09-13T04:07:45;3.40;;;3.10;;
15216;SDS011;7711;46.634;14.318;2022-09-13T04:10:12;3.83;;;3.13;;
15216;SDS011;7711;46.634;14.318;2022-09-13T04:12:39;6.87;;;3.10;;
15216;SDS011;7711;46.634;14.318;2022-09-13T04:15:07;5.60;;;3.37;;
15216;SDS011;7711;46.634;14.318;2022-09-13T04:17:35;5.63;;;3.60;;
15216;SDS011;7711;46.634;14.318;2022-09-13T04:20:02;5.13;;;3.30;;
15216;SDS011;7711;46.634;14.318;2022-09-13T04:22:30;5.27;;;3.70;;
15216;SDS011;7711;46.634;14.318;2022-09-13T04:24:59;5.50;;;3.93;;
15216;SDS011;7711;46.634;14.318;2022-09-13T04:27:26;8.07;;;3.40;;
15216;SDS011;7711;46.634;14.318;2022-09-13T04:29:53;4.93;;;3.30;;
15216;SDS011;7711;46.634;14.318;2022-09-13T04:32:20;4.77;;;3.83;;
15216;SDS011;7711;46.634;14.318;2022-09-13T04:34:47;7.10;;;4.27;;
15216;SDS011;7711;46.634;14.318;2022-09-13T04:37:14;6.83;;;3.90;;
15216;SDS011;7711;46.634;14.318;2022-09-13T04:39:41;3.83;;;3.43;;
15216;SDS011;7711;46.634;14.318;2022-09-13T04:42:09;7.17;;;3.80;;
15216;SDS011;7711;46.634;14.318;2022-09-13T04:44:36;5.73;;;4.10;;
15216;SDS011;7711;46.634;14.318;2022-09-13T04:47:03;5.73;;;4.00;;
15216;SDS011;7711;46.634;14.318;2022-09-13T04:49:32;5.67;;;4.13;;
15216;SDS011;7711;46.634;14.318;2022-09-13T04:51:59;6.03;;;4.20;;
15216;SDS011;7711;46.634;14.318;2022-09-13T04:54:27;3.97;;;3.57;;
15216;SDS011;7711;46.634;14.318;2022-09-13T04:56:54;8.50;;;3.77;;
15216;SDS011;7711;46.634;14.318;2022-09-13T04:59:22;5.73;;;4.47;;
15216;SDS011;7711;46.634;14.318;2022-09-13T05:01:49;6.73;;;5.40;;
15216;SDS011;7711;46.634;14.318;2022-09-13T05:04:16;8.07;;;5.13;;
15216;SDS011;7711;46.634;14.318;2022-09-13T05:06:44;4.83;;;4.30;;
15216;SDS011;7711;46.634;14.318;2022-09-13T05:09:13;6.00;;;4.20;;
15216;SDS011;7711;46.634;14.318;2022-09-13T05:11:40;6.57;;;4.63;;
15216;SDS011;7711;46.634;14.318;2022-09-13T05:14:08;6.40;;;4.57;;
15216;SDS011;7711;46.634;14.318;2022-09-13T05:16:37;4.83;;;4.03;;
15216;SDS011;7711;46.634;14.318;2022-09-13T05:19:04;5.33;;;3.90;;
15216;SDS011;7711;46.634;14.318;2022-09-13T05:21:32;5.67;;;3.97;;
15216;SDS011;7711;46.634;14.318;2022-09-13T05:23:59;35.80;;;6.23;;
15216;SDS011;7711;46.634;14.318;2022-09-13T05:26:27;10.03;;;4.20;;
15216;SDS011;7711;46.634;14.318;2022-09-13T05:28:56;4.37;;;3.37;;
15216;SDS011;7711;46.634;14.318;2022-09-13T05:31:24;15.03;;;3.83;;
15216;SDS011;7711;46.634;14.318;2022-09-13T05:33:55;4.97;;;3.43;;
15216;SDS011;7711;46.634;14.318;2022-09-13T05:36:24;6.63;;;3.57;;
15216;SDS011;7711;46.634;14.318;2022-09-13T05:38:54;8.60;;;4.23;;
15216;SDS011;7711;46.634;14.318;2022-09-13T05:41:22;6.67;;;4.10;;
15216;SDS011;7711;46.634;14.318;2022-09-13T05:43:50;8.07;;;3.90;;
15216;SDS011;7711;46.634;14.318;2022-09-13T05:46:20;5.83;;;3.70;;
15216;SDS011;7711;46.634;14.318;2022-09-13T05:48:47;7.90;;;4.10;;
15216;SDS011;7711;46.634;14.318;2022-09-13T05:51:16;6.33;;;3.80;;
15216;SDS011;7711;46.634;14.318;2022-09-13T05:53:45;4.77;;;4.13;;
15216;SDS011;7711;46.634;14.318;2022-09-13T05:56:13;6.07;;;4.47;;
15216;SDS011;7711;46.634;14.318;2022-09-13T05:58:42;5.13;;;4.63;;
15216;SDS011;7711;46.634;14.318;2022-09-13T06:01:11;9.43;;;4.90;;
15216;SDS011;7711;46.634;14.318;2022-09-13T06:03:39;6.70;;;4.93;;
15216;SDS011;7711;46.634;14.318;2022-09-13T06:06:07;6.97;;;4.30;;
15216;SDS011;7711;46.634;14.318;2022-09-13T06:08:37;4.33;;;3.93;;
15216;SDS011;7711;46.634;14.318;2022-09-13T06:11:05;4.40;;;4.00;;
15216;SDS011;7711;46.634;14.318;2022-09-13T06:13:33;9.13;;;4.27;;
15216;SDS011;7711;46.634;14.318;2022-09-13T06:16:01;4.93;;;4.20;;
15216;SDS011;7711;46.634;14.318;2022-09-13T06:18:30;5.07;;;4.03;;
15216;SDS011;7711;46.634;14.318;2022-09-13T06:20:58;8.20;;;4.00;;
15216;SDS011;7711;46.634;14.318;2022-09-13T06:23:26;6.23;;;4.40;;
15216;SDS011;7711;46.634;14.318;2022-09-13T06:26:01;7.30;;;4.07;;
15216;SDS011;7711;46.634;14.318;2022-09-13T06:28:30;8.90;;;4.00;;
15216;SDS011;7711;46.634;14.318;2022-09-13T06:31:01;5.70;;;3.53;;
15216;SDS011;7711;46.634;14.318;2022-09-13T06:33:30;10.27;;;3.70;;
15216;SDS011;7711;46.634;14.318;2022-09-13T06:35:59;4.23;;;3.60;;
15216;SDS011;7711;46.634;14.318;2022-09-13T06:38:26;6.13;;;3.83;;
15216;SDS011;7711;46.634;14.318;2022-09-13T06:41:02;5.67;;;3.23;;
15216;SDS011;7711;46.634;14.318;2022-09-13T06:43:30;5.13;;;3.30;;
15216;SDS011;7711;46.634;14.318;2022-09-13T06:45:58;7.30;;;3.33;;
15216;SDS011;7711;46.634;14.318;2022-09-13T06:48:29;7.13;;;3.17;;
15216;SDS011;7711;46.634;14.318;2022-09-13T06:50:57;8.60;;;3.37;;
15216;SDS011;7711;46.634;14.318;2022-09-13T06:53:25;5.93;;;3.30;;
15216;SDS011;7711;46.634;14.318;2022-09-13T06:56:04;6.63;;;3.53;;
15216;SDS011;7711;46.634;14.318;2022-09-13T06:58:33;6.77;;;3.90;;
15216;SDS011;7711;46.634;14.318;2022-09-13T07:01:07;4.23;;;3.27;;
15216;SDS011;7711;46.634;14.318;2022-09-13T07:03:36;5.20;;;3.57;;
15216;SDS011;7711;46.634;14.318;2022-09-13T07:06:07;6.67;;;3.53;;
15216;SDS011;7711;46.634;14.318;2022-09-13T07:08:35;5.67;;;3.47;;
15216;SDS011;7711;46.634;14.318;2022-09-13T07:11:04;5.67;;;3.50;;
15216;SDS011;7711;46.634;14.318;2022-09-13T07:13:32;5.00;;;3.42;;
15216;SDS011;7711;46.634;14.318;2022-09-13T07:16:00;6.00;;;3.80;;
15216;SDS011;7711;46.634;14.318;2022-09-13T07:18:31;4.40;;;3.43;;
15216;SDS011;7711;46.634;14.318;2022-09-13T07:20:59;7.30;;;3.60;;
15216;SDS011;7711;46.634;14.318;2022-09-13T07:23:29;4.20;;;3.27;;
15216;SDS011;7711;46.634;14.318;2022-09-13T07:25:56;4.23;;;3.20;;
15216;SDS011;7711;46.634;14.318;2022-09-13T07:28:30;4.25;;;3.15;;
15216;SDS011;7711;46.634;14.318;2022-09-13T07:31:03;6.72;;;3.40;;
15216;SDS011;7711;46.634;14.318;2022-09-13T07:33:31;3.53;;;3.22;;
15216;SDS011;7711;46.634;14.318;2022-09-13T07:35:58;5.80;;;3.28;;
15216;SDS011;7711;46.634;14.318;2022-09-13T07:38:30;4.68;;;3.15;;
15216;SDS011;7711;46.634;14.318;2022-09-13T07:41:00;6.15;;;3.17;;
15216;SDS011;7711;46.634;14.318;2022-09-13T07:43:32;5.00;;;2.83;;
15216;SDS011;7711;46.634;14.318;2022-09-13T07:46:00;4.85;;;3.60;;
15216;SDS011;7711;46.634;14.318;2022-09-13T07:48:32;6.03;;;3.40;;
15216;SDS011;7711;46.634;14.318;2022-09-13T07:51:01;4.95;;;3.33;;
15216;SDS011;7711;46.634;14.318;2022-09-13T07:53:30;4.57;;;3.60;;
15216;SDS011;7711;46.634;14.318;2022-09-13T07:56:01;3.50;;;3.08;;
15216;SDS011;7711;46.634;14.318;2022-09-13T07:58:30;4.18;;;3.20;;
15216;SDS011;7711;46.634;14.318;2022-09-13T08:01:01;5.10;;;3.13;;
15216;SDS011;7711;46.634;14.318;2022-09-13T08:03:30;4.47;;;3.30;;
15216;SDS011;7711;46.634;14.318;2022-09-13T08:05:58;5.13;;;3.40;;
15216;SDS011;7711;46.634;14.318;2022-09-13T08:08:25;4.43;;;3.03;;
15216;SDS011;7711;46.634;14.318;2022-09-13T08:10:52;6.55;;;3.60;;
15216;SDS011;7711;46.634;14.318;2022-09-13T08:13:20;5.07;;;3.20;;
15216;SDS011;7711;46.634;14.318;2022-09-13T08:15:49;4.60;;;3.25;;
15216;SDS011;7711;46.634;14.318;2022-09-13T08:18:17;4.60;;;3.15;;
15216;SDS011;7711;46.634;14.318;2022-09-13T08:20:44;3.30;;;3.00;;
15216;SDS011;7711;46.634;14.318;2022-09-13T08:23:14;6.05;;;3.10;;
15216;SDS011;7711;46.634;14.318;2022-09-13T08:25:41;5.20;;;3.10;;
15216;SDS011;7711;46.634;14.318;2022-09-13T08:28:09;4.90;;;3.30;;
15216;SDS011;7711;46.634;14.318;2022-09-13T08:30:40;3.95;;;3.30;;
15216;SDS011;7711;46.634;14.318;2022-09-13T08:33:11;4.90;;;2.78;;
15216;SDS011;7711;46.634;14.318;2022-09-13T08:35:38;3.83;;;2.70;;
15216;SDS011;7711;46.634;14.318;2022-09-13T08:38:06;2.95;;;2.67;;
15216;SDS011;7711;46.634;14.318;2022-09-13T08:40:38;5.05;;;2.78;;
15216;SDS011;7711;46.634;14.318;2022-09-13T08:43:10;3.70;;;2.65;;
15216;SDS011;7711;46.634;14.318;2022-09-13T08:45:47;3.05;;;2.60;;
15216;SDS011;7711;46.634;14.318;2022-09-13T08:48:18;3.92;;;2.60;;
15216;SDS011;7711;46.634;14.318;2022-09-13T08:50:49;3.35;;;2.40;;
15216;SDS011;7711;46.634;14.318;2022-09-13T08:53:19;4.20;;;2.70;;
15216;SDS011;7711;46.634;14.318;2022-09-13T08:55:53;4.60;;;2.70;;
15216;SDS011;7711;46.634;14.318;2022-09-13T08:58:31;3.20;;;2.85;;
15216;SDS011;7711;46.634;14.318;2022-09-13T09:01:18;4.53;;;2.67;;
15216;SDS011;7711;46.634;14.318;2022-09-13T09:03:55;3.85;;;2.70;;
15216;SDS011;7711;46.634;14.318;2022-09-13T09:06:27;2.85;;;2.55;;
15216;SDS011;7711;46.634;14.318;2022-09-13T09:08:56;2.60;;;2.40;;
15216;SDS011;7711;46.634;14.318;2022-09-13T09:11:29;2.40;;;2.20;;
15216;SDS011;7711;46.634;14.318;2022-09-13T09:14:03;2.92;;;2.22;;
15216;SDS011;7711;46.634;14.318;2022-09-13T09:16:37;3.05;;;2.47;;
15216;SDS011;7711;46.634;14.318;2022-09-13T09:19:11;3.08;;;2.40;;
15216;SDS011;7711;46.634;14.318;2022-09-13T09:21:44;3.78;;;2.53;;
15216;SDS011;7711;46.634;14.318;2022-09-13T09:24:15;4.68;;;2.55;;
15216;SDS011;7711;46.634;14.318;2022-09-13T09:26:46;3.33;;;2.58;;
15216;SDS011;7711;46.634;14.318;2022-09-13T09:29:15;5.82;;;2.67;;
15216;SDS011;7711;46.634;14.318;2022-09-13T09:31:47;3.75;;;2.70;;
15216;SDS011;7711;46.634;14.318;2022-09-13T09:34:29;2.97;;;2.50;;
15216;SDS011;7711;46.634;14.318;2022-09-13T09:37:10;3.25;;;2.70;;
15216;SDS011;7711;46.634;14.318;2022-09-13T09:39:42;4.90;;;2.45;;
15216;SDS011;7711;46.634;14.318;2022-09-13T09:42:10;4.13;;;2.50;;
15216;SDS011;7711;46.634;14.318;2022-09-13T09:44:42;20.55;;;3.83;;
15216;SDS011;7711;46.634;14.318;2022-09-13T09:47:13;5.95;;;3.00;;
15216;SDS011;7711;46.634;14.318;2022-09-13T09:49:45;3.08;;;2.40;;
15216;SDS011;7711;46.634;14.318;2022-09-13T09:52:32;6.35;;;2.72;;
15216;SDS011;7711;46.634;14.318;2022-09-13T09:55:13;3.13;;;2.65;;
15216;SDS011;7711;46.634;14.318;2022-09-13T09:57:55;3.30;;;2.60;;
15216;SDS011;7711;46.634;14.318;2022-09-13T10:00:31;3.13;;;2.63;;
15216;SDS011;7711;46.634;14.318;2022-09-13T10:03:16;3.45;;;2.60;;
15216;SDS011;7711;46.634;14.318;2022-09-13T10:06:07;2.65;;;2.40;;
15216;SDS011;7711;46.634;14.318;2022-09-13T10:08:41;2.63;;;2.42;;
15216;SDS011;7711;46.634;14.318;2022-09-13T10:11:09;4.65;;;2.67;;
15216;SDS011;7711;46.634;14.318;2022-09-13T10:13:36;4.68;;;2.38;;
15216;SDS011;7711;46.634;14.318;2022-09-13T10:16:06;3.67;;;2.65;;
15216;SDS011;7711;46.634;14.318;2022-09-13T10:18:56;3.60;;;2.35;;
15216;SDS011;7711;46.634;14.318;2022-09-13T10:22:01;3.33;;;2.50;;
15216;SDS011;7711;46.634;14.318;2022-09-13T10:24:31;6.70;;;2.78;;
15216;SDS011;7711;46.634;14.318;2022-09-13T10:26:58;3.03;;;2.40;;
15216;SDS011;7711;46.634;14.318;2022-09-13T10:29:27;2.67;;;2.30;;
15216;SDS011;7711;46.634;14.318;2022-09-13T10:31:55;3.53;;;2.33;;
15216;SDS011;7711;46.634;14.318;2022-09-13T10:34:26;4.70;;;2.50;;
15216;SDS011;7711;46.634;14.318;2022-09-13T10:36:56;2.80;;;2.50;;
15216;SDS011;7711;46.634;14.318;2022-09-13T10:39:30;3.55;;;2.20;;
15216;SDS011;7711;46.634;14.318;2022-09-13T10:42:00;7.47;;;2.65;;
15216;SDS011;7711;46.634;14.318;2022-09-13T10:44:31;3.17;;;2.17;;
15216;SDS011;7711;46.634;14.318;2022-09-13T10:47:03;3.22;;;2.25;;
15216;SDS011;7711;46.634;14.318;2022-09-13T10:49:37;3.45;;;2.22;;
15216;SDS011;7711;46.634;14.318;2022-09-13T10:52:27;2.60;;;2.30;;
15216;SDS011;7711;46.634;14.318;2022-09-13T10:57:51;4.45;;;2.42;;
15216;SDS011;7711;46.634;14.318;2022-09-13T11:00:20;3.50;;;2.25;;
15216;SDS011;7711;46.634;14.318;2022-09-13T11:02:55;3.03;;;2.40;;
15216;SDS011;7711;46.634;14.318;2022-09-13T11:05:34;2.83;;;2.28;;
15216;SDS011;7711;46.634;14.318;2022-09-13T11:11:10;4.25;;;2.35;;
15216;SDS011;7711;46.634;14.318;2022-09-13T11:13:50;2.88;;;2.22;;
15216;SDS011;7711;46.634;14.318;2022-09-13T11:16:42;2.40;;;2.20;;
15216;SDS011;7711;46.634;14.318;2022-09-13T11:22:28;2.50;;;2.30;;
15216;SDS011;7711;46.634;14.318;2022-09-13T11:25:08;2.38;;;2.17;;
15216;SDS011;7711;46.634;14.318;2022-09-13T11:27:51;4.15;;;2.00;;
15216;SDS011;7711;46.634;14.318;2022-09-13T11:30:27;3.15;;;2.45;;
15216;SDS011;7711;46.634;14.318;2022-09-13T11:33:07;3.08;;;2.20;;
15216;SDS011;7711;46.634;14.318;2022-09-13T11:35:50;3.85;;;2.38;;
15216;SDS011;7711;46.634;14.318;2022-09-13T11:38:34;8.07;;;2.60;;
15216;SDS011;7711;46.634;14.318;2022-09-13T11:41:07;2.45;;;2.20;;
15216;SDS011;7711;46.634;14.318;2022-09-13T11:43:46;2.42;;;2.22;;
15216;SDS011;7711;46.634;14.318;2022-09-13T11:46:24;2.88;;;2.20;;
15216;SDS011;7711;46.634;14.318;2022-09-13T11:52:01;5.90;;;2.58;;
15216;SDS011;7711;46.634;14.318;2022-09-13T11:54:48;4.18;;;2.38;;
15216;SDS011;7711;46.634;14.318;2022-09-13T11:57:23;2.63;;;2.13;;
15216;SDS011;7711;46.634;14.318;2022-09-13T11:59:58;2.78;;;2.22;;
15216;SDS011;7711;46.634;14.318;2022-09-13T12:02:28;3.10;;;2.40;;
15216;SDS011;7711;46.634;14.318;2022-09-13T12:05:06;5.03;;;2.75;;
15216;SDS011;7711;46.634;14.318;2022-09-13T12:07:40;3.15;;;2.15;;
15216;SDS011;7711;46.634;14.318;2022-09-13T12:10:13;2.50;;;2.30;;
15216;SDS011;7711;46.634;14.318;2022-09-13T12:12:43;3.45;;;2.25;;
15216;SDS011;7711;46.634;14.318;2022-09-13T12:15:16;4.65;;;2.30;;
15216;SDS011;7711;46.634;14.318;2022-09-13T12:17:49;3.22;;;2.15;;
15216;SDS011;7711;46.634;14.318;2022-09-13T12:20:23;3.08;;;2.30;;
15216;SDS011;7711;46.634;14.318;2022-09-13T12:22:57;4.78;;;2.30;;
15216;SDS011;7711;46.634;14.318;2022-09-13T12:25:29;3.40;;;2.40;;
15216;SDS011;7711;46.634;14.318;2022-09-13T12:28:05;3.72;;;2.38;;
15216;SDS011;7711;46.634;14.318;2022-09-13T12:30:41;4.10;;;2.33;;
15216;SDS011;7711;46.634;14.318;2022-09-13T12:33:13;4.60;;;2.25;;
15216;SDS011;7711;46.634;14.318;2022-09-13T12:35:44;2.63;;;2.42;;
15216;SDS011;7711;46.634;14.318;2022-09-13T12:38:34;4.82;;;2.30;;
15216;SDS011;7711;46.634;14.318;2022-09-13T12:41:25;3.53;;;2.10;;
15216;SDS011;7711;46.634;14.318;2022-09-13T12:44:08;5.03;;;2.20;;
15216;SDS011;7711;46.634;14.318;2022-09-13T12:49:51;5.32;;;2.40;;
15216;SDS011;7711;46.634;14.318;2022-09-13T12:52:38;2.35;;;2.15;;
15216;SDS011;7711;46.634;14.318;2022-09-13T12:55:15;4.03;;;2.45;;
15216;SDS011;7711;46.634;14.318;2022-09-13T12:58:04;2.72;;;2.30;;
15216;SDS011;7711;46.634;14.318;2022-09-13T13:00:44;2.25;;;2.00;;
15216;SDS011;7711;46.634;14.318;2022-09-13T13:03:28;24.30;;;3.55;;
15216;SDS011;7711;46.634;14.318;2022-09-13T13:06:07;17.15;;;3.55;;
15216;SDS011;7711;46.634;14.318;2022-09-13T13:08:42;3.47;;;2.10;;
15216;SDS011;7711;46.634;14.318;2022-09-13T13:11:16;2.28;;;2.08;;
15216;SDS011;7711;46.634;14.318;2022-09-13T13:13:52;2.30;;;2.08;;
15216;SDS011;7711;46.634;14.318;2022-09-13T13:16:26;2.97;;;2.00;;
15216;SDS011;7711;46.634;14.318;2022-09-13T13:18:57;7.55;;;2.00;;
15216;SDS011;7711;46.634;14.318;2022-09-13T13:21:37;3.40;;;2.00;;
15216;SDS011;7711;46.634;14.318;2022-09-13T13:33:19;2.58;;;2.33;;
15216;SDS011;7711;46.634;14.318;2022-09-13T13:35:49;2.20;;;2.00;;
15216;SDS011;7711;46.634;14.318;2022-09-13T13:38:38;2.25;;;2.13;;
15216;SDS011;7711;46.634;14.318;2022-09-13T13:41:28;2.40;;;2.20;;
15216;SDS011;7711;46.634;14.318;2022-09-13T13:50:12;2.80;;;2.30;;
15216;SDS011;7711;46.634;14.318;2022-09-13T13:52:50;2.97;;;2.42;;
15216;SDS011;7711;46.634;14.318;2022-09-13T13:55:28;2.65;;;2.28;;
15216;SDS011;7711;46.634;14.318;2022-09-13T13:58:07;2.20;;;2.00;;
15216;SDS011;7711;46.634;14.318;2022-09-13T14:00:51;3.08;;;2.20;;
15216;SDS011;7711;46.634;14.318;2022-09-13T14:03:22;4.70;;;2.00;;
15216;SDS011;7711;46.634;14.318;2022-09-13T14:05:59;2.30;;;2.10;;
15216;SDS011;7711;46.634;14.318;2022-09-13T14:08:38;2.40;;;2.20;;
15216;SDS011;7711;46.634;14.318;2022-09-13T14:11:24;3.05;;;2.20;;
15216;SDS011;7711;46.634;14.318;2022-09-13T14:14:06;3.90;;;2.10;;
15216;SDS011;7711;46.634;14.318;2022-09-13T14:16:51;2.33;;;1.85;;
15216;SDS011;7711;46.634;14.318;2022-09-13T14:19:26;3.20;;;1.98;;
15216;SDS011;7711;46.634;14.318;2022-09-13T14:22:10;3.53;;;2.25;;
15216;SDS011;7711;46.634;14.318;2022-09-13T14:24:40;3.47;;;2.08;;
15216;SDS011;7711;46.634;14.318;2022-09-13T14:27:15;2.97;;;2.00;;
15216;SDS011;7711;46.634;14.318;2022-09-13T14:29:46;3.35;;;2.00;;
15216;SDS011;7711;46.634;14.318;2022-09-13T14:32:15;10.43;;;2.85;;
15216;SDS011;7711;46.634;14.318;2022-09-13T14:34:52;5.30;;;2.13;;
15216;SDS011;7711;46.634;14.318;2022-09-13T14:37:24;4.43;;;2.15;;
15216;SDS011;7711;46.634;14.318;2022-09-13T14:39:57;2.70;;;1.92;;
15216;SDS011;7711;46.634;14.318;2022-09-13T14:42:36;3.65;;;1.90;;
15216;SDS011;7711;46.634;14.318;2022-09-13T14:45:04;3.25;;;1.80;;
15216;SDS011;7711;46.634;14.318;2022-09-13T14:47:32;4.00;;;2.08;;
15216;SDS011;7711;46.634;14.318;2022-09-13T14:50:05;4.78;;;2.10;;
15216;SDS011;7711;46.634;14.318;2022-09-13T14:52:47;1.92;;;1.83;;
15216;SDS011;7711;46.634;14.318;2022-09-13T14:55:19;4.70;;;2.40;;
15216;SDS011;7711;46.634;14.318;2022-09-13T14:57:54;3.88;;;2.00;;
15216;SDS011;7711;46.634;14.318;2022-09-13T15:00:27;2.65;;;1.98;;
15216;SDS011;7711;46.634;14.318;2022-09-13T15:02:56;2.30;;;2.10;;
15216;SDS011;7711;46.634;14.318;2022-09-13T15:05:28;3.08;;;1.98;;
15216;SDS011;7711;46.634;14.318;2022-09-13T15:07:58;2.42;;;2.10;;
15216;SDS011;7711;46.634;14.318;2022-09-13T15:10:26;2.55;;;2.15;;
15216;SDS011;7711;46.634;14.318;2022-09-13T15:13:07;2.47;;;2.15;;
15216;SDS011;7711;46.634;14.318;2022-09-13T15:15:37;2.00;;;1.90;;
15216;SDS011;7711;46.634;14.318;2022-09-13T15:18:05;3.80;;;2.10;;
15216;SDS011;7711;46.634;14.318;2022-09-13T15:20:52;3.45;;;1.85;;
15216;SDS011;7711;46.634;14.318;2022-09-13T15:23:22;2.92;;;2.00;;
15216;SDS011;7711;46.634;14.318;2022-09-13T15:25:51;4.53;;;2.10;;
15216;SDS011;7711;46.634;14.318;2022-09-13T15:28:22;3.17;;;2.08;;
15216;SDS011;7711;46.634;14.318;2022-09-13T15:30:50;1.92;;;1.83;;
15216;SDS011;7711;46.634;14.318;2022-09-13T15:33:21;2.97;;;2.00;;
15216;SDS011;7711;46.634;14.318;2022-09-13T15:39:01;3.33;;;1.98;;
15216;SDS011;7711;46.634;14.318;2022-09-13T15:41:30;2.50;;;2.30;;
15216;SDS011;7711;46.634;14.318;2022-09-13T15:44:04;2.55;;;2.33;;
15216;SDS011;7711;46.634;14.318;2022-09-13T15:46:33;2.75;;;2.28;;
15216;SDS011;7711;46.634;14.318;2022-09-13T15:49:08;4.25;;;2.50;;
15216;SDS011;7711;46.634;14.318;2022-09-13T15:51:42;3.20;;;2.53;;
15216;SDS011;7711;46.634;14.318;2022-09-13T15:54:10;4.70;;;2.40;;
15216;SDS011;7711;46.634;14.318;2022-09-13T15:56:38;5.30;;;2.50;;